Monroe County Airport Bloomington US
ICAO: KBMG
IATA: BMG
Category: Medium
Scheduled Services: No

Elevation: 846 ft
TransAlt. 18000 ft.

Airport Communications:
HULMAN APP/DEP:128.05
ASOS:110.2
CTAF:120.775
GND:121.9
TERRE HAUTE RDO:110.2
BLOOMINGTON TWR:120.775
UNICOM:122.95

KBMG Zoom In..

Runways:

(A) RW 06 length 3798 ft width 100 ft
---- / hdg 64

(B) RW 17 length 6500 ft width 150 ft
---- / hdg 174

(C) RW 24 length 3798 ft width 100 ft
---- / hdg 244

(D) RW 35 length 6500 ft width 150 ft
ILS 108.30 / hdg 354

Location; KBMG
Day. 23 / Time. 03.53 Zulu
* Altimeter: 29.86
* Temperature: 21° c. 69.8°f.
* Wind from: 360° Speed 04 kn.
Dewpoint: 21° c.
Visibility: 10 Statute Miles.
Clouds: Clear (automated report).

KBMG 230353Z AUTO 36004KT 10SM CLR 21/21 A2986 RMK AO2 SLP103 T02110206 $


Wind From 360°
Speed 04 kn.

 
 
jpsmedia.com for Web Design worldairports.se 2018   terms of use